createdAt,value
2019-04-25T00:01:15.397Z,100512.44
2019-04-25T00:03:45.462Z,100536.43
2019-04-25T00:06:16.239Z,100519.78
2019-04-25T00:08:47.291Z,100537.91
2019-04-25T00:11:17.012Z,100537.91
2019-04-25T00:13:47.886Z,100537.90
2019-04-25T00:16:21.406Z,100521.25
2019-04-25T00:18:51.794Z,100521.17
2019-04-25T00:21:31.778Z,100542.75
2019-04-25T00:24:07.258Z,100542.75
2019-04-25T00:26:41.495Z,100538.42
2019-04-25T00:29:13.190Z,100541.00
2019-04-25T00:31:43.826Z,100541.65
2019-04-25T00:34:14.419Z,100545.61
2019-04-25T00:36:45.596Z,100545.16
2019-04-25T00:39:15.469Z,100554.70
2019-04-25T00:41:46.395Z,100546.58
2019-04-25T00:44:17.336Z,100528.61
2019-04-25T00:46:49.044Z,100528.61
2019-04-25T00:49:18.898Z,100550.33
2019-04-25T00:51:50.727Z,100521.36
2019-04-25T00:54:22.638Z,100544.80
2019-04-25T00:56:53.839Z,100541.34
2019-04-25T00:59:32.057Z,100539.48
2019-04-25T01:02:23.734Z,100539.48
2019-04-25T01:04:54.199Z,100536.66
2019-04-25T01:07:24.306Z,100536.59
2019-04-25T01:09:54.603Z,100536.59
2019-04-25T01:12:24.722Z,100538.48
2019-04-25T01:14:54.760Z,100537.16
2019-04-25T01:17:24.800Z,100542.22
2019-04-25T01:19:57.748Z,100542.22
2019-04-25T01:22:26.455Z,100540.22
2019-04-25T01:24:56.177Z,100538.90
2019-04-25T01:27:26.099Z,100530.50
2019-04-25T01:29:56.439Z,100535.63
2019-04-25T01:32:33.538Z,100535.63
2019-04-25T01:35:23.683Z,100532.98
2019-04-25T01:38:03.591Z,100531.81
2019-04-25T01:40:44.379Z,100532.05
2019-04-25T01:43:23.850Z,100530.61
2019-04-25T01:45:54.927Z,100530.61
2019-04-25T01:48:26.085Z,100531.14
2019-04-25T01:51:08.646Z,100530.38
2019-04-25T01:53:38.674Z,100530.91
2019-04-25T01:56:08.731Z,100527.26
2019-04-25T01:58:43.641Z,100533.25
2019-04-25T02:01:12.233Z,100533.40
2019-04-25T02:03:42.237Z,100522.77
2019-04-25T02:06:13.616Z,100536.83
2019-04-25T02:08:45.228Z,100510.86
2019-04-25T02:11:29.711Z,100529.29
2019-04-25T02:14:00.322Z,100522.47
2019-04-25T02:16:30.704Z,100534.72
2019-04-25T02:19:00.796Z,100534.72
2019-04-25T02:21:30.583Z,100531.85
2019-04-25T02:24:00.533Z,100526.42
2019-04-25T02:26:30.289Z,100526.42
2019-04-25T02:29:00.578Z,100531.06
2019-04-25T02:31:30.487Z,100531.47
2019-04-25T02:34:08.165Z,100531.47
2019-04-25T02:36:35.824Z,100533.40
2019-04-25T02:39:11.660Z,100532.08
2019-04-25T02:41:41.551Z,100537.20
2019-04-25T02:44:11.510Z,100536.41
2019-04-25T02:47:00.703Z,100540.75
2019-04-25T02:49:48.686Z,100538.86
2019-04-25T02:52:26.532Z,100539.61
2019-04-25T02:54:58.392Z,100537.38
2019-04-25T02:57:28.339Z,100536.66
2019-04-25T02:59:58.545Z,100541.71
2019-04-25T03:02:29.635Z,100541.71
2019-04-25T03:05:01.166Z,100545.33
2019-04-25T03:07:34.471Z,100539.70
2019-04-25T03:10:06.209Z,100539.70
2019-04-25T03:12:36.812Z,100528.80
2019-04-25T03:15:10.013Z,100533.97
2019-04-25T03:17:38.894Z,100533.97
2019-04-25T03:20:39.825Z,100536.83
2019-04-25T03:23:17.390Z,100535.80
2019-04-25T03:25:47.486Z,100536.20
2019-04-25T03:28:17.425Z,100534.15
2019-04-25T03:30:47.340Z,100539.22
2019-04-25T03:33:19.699Z,100535.47
2019-04-25T03:35:48.758Z,100535.47
2019-04-25T03:38:18.427Z,100539.28
2019-04-25T03:40:48.392Z,100537.27
2019-04-25T03:43:18.288Z,100543.05
2019-04-25T03:45:48.267Z,100542.02
2019-04-25T03:48:18.302Z,100535.16
2019-04-25T03:50:47.928Z,100545.68
2019-04-25T03:53:17.522Z,100541.26
2019-04-25T03:55:47.251Z,100541.26
2019-04-25T03:58:17.024Z,100542.23
2019-04-25T04:00:47.076Z,100527.41
2019-04-25T04:03:16.661Z,100527.41
2019-04-25T04:05:46.659Z,100541.53
2019-04-25T04:08:16.346Z,100523.56
2019-04-25T04:10:46.530Z,100548.63
2019-04-25T04:13:16.603Z,100547.23
2019-04-25T04:15:46.266Z,100519.83
2019-04-25T04:18:28.489Z,100538.31
2019-04-25T04:21:26.093Z,100540.02
2019-04-25T04:24:08.048Z,100541.23
2019-04-25T04:26:37.915Z,100541.23
2019-04-25T04:29:07.842Z,100513.15
2019-04-25T04:31:37.630Z,100519.00
2019-04-25T04:34:07.332Z,100519.00
2019-04-25T04:36:36.862Z,100535.41
2019-04-25T04:39:07.778Z,100539.94
2019-04-25T04:41:38.418Z,100538.97
2019-04-25T04:44:08.328Z,100531.02
2019-04-25T04:46:37.913Z,100523.70
2019-04-25T04:49:08.688Z,100529.27
2019-04-25T04:51:38.518Z,100533.42
2019-04-25T04:54:09.415Z,100535.87
2019-04-25T04:56:40.154Z,100534.03
2019-04-25T04:59:10.858Z,100533.09
2019-04-25T05:01:58.563Z,100533.09
2019-04-25T05:04:36.122Z,100524.41
2019-04-25T05:07:11.078Z,100524.41
2019-04-25T05:09:40.994Z,100527.03
2019-04-25T05:12:10.728Z,100522.36
2019-04-25T05:14:41.114Z,100523.29
2019-04-25T05:17:11.342Z,100522.40
2019-04-25T05:19:43.432Z,100521.00
2019-04-25T05:22:14.809Z,100520.61
2019-04-25T05:24:45.768Z,100513.33
2019-04-25T05:27:30.620Z,100518.92
2019-04-25T05:29:46.833Z,100510.34
2019-04-25T05:32:17.275Z,100509.85
2019-04-25T05:34:49.327Z,100512.97
2019-04-25T05:37:19.664Z,100511.59
2019-04-25T05:39:49.480Z,100516.75
2019-04-25T05:42:44.358Z,100512.64
2019-04-25T05:45:16.085Z,100507.34
2019-04-25T05:47:45.065Z,100509.56
2019-04-25T05:50:15.911Z,100501.16
2019-04-25T05:52:45.938Z,100505.83
2019-04-25T05:55:18.958Z,100503.34
2019-04-25T05:57:50.141Z,100506.64
2019-04-25T06:00:19.350Z,100500.52
2019-04-25T06:02:49.201Z,100504.32
2019-04-25T06:05:19.672Z,100502.64
2019-04-25T06:07:49.516Z,100502.66
2019-04-25T06:10:47.278Z,100502.69
2019-04-25T06:13:40.333Z,100501.27
2019-04-25T06:16:25.617Z,100499.22
2019-04-25T06:19:13.736Z,100498.03
2019-04-25T06:21:33.803Z,100495.66
2019-04-25T06:24:13.154Z,100492.03
2019-04-25T06:27:17.289Z,100487.19
2019-04-25T06:29:58.125Z,100491.91
2019-04-25T06:32:24.663Z,100486.23
2019-04-25T06:34:54.537Z,100488.05
2019-04-25T06:37:27.332Z,100485.97
2019-04-25T06:39:57.361Z,100488.28
2019-04-25T06:42:28.111Z,100484.75
2019-04-25T06:45:06.778Z,100487.41
2019-04-25T06:48:01.318Z,100484.48
2019-04-25T06:50:35.438Z,100486.20
2019-04-25T06:53:06.402Z,100486.42
2019-04-25T06:55:36.065Z,100486.41
2019-04-25T06:58:12.080Z,100484.47
2019-04-25T07:00:41.316Z,100482.62
2019-04-25T07:03:09.512Z,100475.58
2019-04-25T07:05:40.847Z,100474.58
2019-04-25T07:08:11.050Z,100468.84
2019-04-25T07:10:40.653Z,100478.06
2019-04-25T07:13:14.186Z,100479.61
2019-04-25T07:15:45.008Z,100471.23
2019-04-25T07:18:15.487Z,100475.91
2019-04-25T07:20:45.456Z,100471.99
2019-04-25T07:23:15.346Z,100478.86
2019-04-25T07:25:51.504Z,100472.20
2019-04-25T07:28:41.099Z,100473.85
2019-04-25T07:31:41.664Z,100483.39
2019-04-25T07:34:19.912Z,100475.58
2019-04-25T07:36:49.548Z,100473.34
2019-04-25T07:39:19.590Z,100466.89
2019-04-25T07:41:50.273Z,100465.30
2019-04-25T07:44:28.509Z,100470.38
2019-04-25T07:46:51.709Z,100469.97
2019-04-25T07:49:23.934Z,100467.03
2019-04-25T07:51:53.800Z,100466.70
2019-04-25T07:54:24.176Z,100456.10
2019-04-25T07:56:55.182Z,100457.91
2019-04-25T07:59:25.038Z,100470.81
2019-04-25T08:01:54.860Z,100462.27
2019-04-25T08:04:29.276Z,100454.63
2019-04-25T08:06:59.823Z,100453.50
2019-04-25T08:09:29.845Z,100467.87
2019-04-25T08:11:59.767Z,100456.77
2019-04-25T08:14:37.301Z,100452.92
2019-04-25T08:17:07.872Z,100457.87
2019-04-25T08:19:37.801Z,100448.29
2019-04-25T08:22:07.953Z,100455.65
2019-04-25T08:24:39.090Z,100450.98
2019-04-25T08:27:08.798Z,100453.53
2019-04-25T08:29:39.752Z,100446.63
2019-04-25T08:32:09.798Z,100440.80
2019-04-25T08:34:40.078Z,100449.38
2019-04-25T08:37:17.936Z,100433.05
2019-04-25T08:39:41.410Z,100436.55
2019-04-25T08:42:11.048Z,100432.48
2019-04-25T08:44:41.355Z,100431.56
2019-04-25T08:47:11.134Z,100431.50
2019-04-25T08:49:49.682Z,100427.14
2019-04-25T08:52:20.841Z,100423.23
2019-04-25T08:55:07.785Z,100414.41
2019-04-25T08:57:51.421Z,100414.27
2019-04-25T09:00:31.649Z,100418.29
2019-04-25T09:03:06.050Z,100417.64
2019-04-25T09:05:44.385Z,100399.47
2019-04-25T09:08:14.216Z,100408.26
2019-04-25T09:10:44.922Z,100409.32
2019-04-25T09:13:15.030Z,100394.66
2019-04-25T09:15:45.752Z,100395.88
2019-04-25T09:18:15.559Z,100392.20
2019-04-25T09:20:46.619Z,100389.83
2019-04-25T09:23:16.584Z,100398.19
2019-04-25T09:25:47.263Z,100387.54
2019-04-25T09:28:16.906Z,100389.50
2019-04-25T09:30:47.782Z,100389.98
2019-04-25T09:33:17.498Z,100387.16
2019-04-25T09:35:49.719Z,100387.88
2019-04-25T09:38:19.811Z,100380.53
2019-04-25T09:40:49.650Z,100388.34
2019-04-25T09:43:23.506Z,100387.87
2019-04-25T09:46:17.255Z,100380.99
2019-04-25T09:49:07.519Z,100374.53
2019-04-25T09:51:40.951Z,100376.55
2019-04-25T09:54:36.150Z,100373.37
2019-04-25T09:57:23.981Z,100369.23
2019-04-25T09:59:54.117Z,100366.75
2019-04-25T10:02:23.973Z,100365.17
2019-04-25T10:04:54.761Z,100362.00
2019-04-25T10:07:25.217Z,100362.30
2019-04-25T10:09:56.019Z,100364.17
2019-04-25T10:12:25.799Z,100365.83
2019-04-25T10:15:48.330Z,100360.95
2019-04-25T10:18:18.067Z,100353.45
2019-04-25T10:20:47.847Z,100363.59
2019-04-25T10:23:17.971Z,100353.27
2019-04-25T10:25:49.717Z,100350.09
2019-04-25T10:28:19.497Z,100344.55
2019-04-25T10:30:49.235Z,100340.58
2019-04-25T10:33:20.936Z,100352.89
2019-04-25T10:35:56.766Z,100346.23
2019-04-25T10:38:24.129Z,100339.91
2019-04-25T10:40:54.141Z,100341.92
2019-04-25T10:43:24.266Z,100339.80
2019-04-25T10:45:55.131Z,100343.39
2019-04-25T10:48:25.006Z,100332.03
2019-04-25T10:50:55.674Z,100321.45
2019-04-25T10:53:28.092Z,100323.02
2019-04-25T10:56:03.785Z,100329.25
2019-04-25T10:58:29.666Z,100327.31
2019-04-25T11:00:59.927Z,100328.63
2019-04-25T11:03:36.821Z,100322.06
2019-04-25T11:06:08.021Z,100321.91
2019-04-25T11:08:38.074Z,100318.75
2019-04-25T11:11:07.911Z,100318.78
2019-04-25T11:13:41.597Z,100323.66
2019-04-25T11:16:11.347Z,100311.63
2019-04-25T11:18:40.924Z,100314.93
2019-04-25T11:21:13.784Z,100317.88
2019-04-25T11:23:44.987Z,100305.13
2019-04-25T11:26:15.290Z,100306.30
2019-04-25T11:28:45.422Z,100300.20
2019-04-25T11:31:24.739Z,100286.07
2019-04-25T11:33:54.967Z,100297.59
2019-04-25T11:36:25.365Z,100294.95
2019-04-25T11:39:32.105Z,100291.87
2019-04-25T11:42:06.356Z,100290.81
2019-04-25T11:44:36.546Z,100284.05
2019-04-25T11:47:07.579Z,100289.90
2019-04-25T11:49:37.149Z,100285.30
2019-04-25T11:52:08.243Z,100284.27
2019-04-25T11:54:38.438Z,100280.59
2019-04-25T11:57:08.028Z,100275.27
2019-04-25T11:59:41.986Z,100267.37
2019-04-25T12:02:13.383Z,100265.38
2019-04-25T12:04:45.464Z,100268.19
2019-04-25T12:07:15.109Z,100269.03
2019-04-25T12:09:45.796Z,100263.30
2019-04-25T12:12:16.462Z,100263.06
2019-04-25T12:14:46.390Z,100246.70
2019-04-25T12:17:16.214Z,100250.37
2019-04-25T12:19:46.926Z,100253.20
2019-04-25T12:22:18.109Z,100244.74
2019-04-25T12:24:47.978Z,100245.33
2019-04-25T12:27:20.201Z,100247.58
2019-04-25T12:29:50.070Z,100230.84
2019-04-25T12:32:19.575Z,100225.17
2019-04-25T12:34:49.515Z,100233.70
2019-04-25T12:37:19.456Z,100231.30
2019-04-25T12:39:48.874Z,100228.42
2019-04-25T12:42:18.722Z,100224.83
2019-04-25T12:45:06.938Z,100214.92
2019-04-25T12:47:39.900Z,100216.45
2019-04-25T12:50:10.336Z,100210.05
2019-04-25T12:52:39.964Z,100219.84
2019-04-25T12:55:11.412Z,100211.26
2019-04-25T12:57:40.805Z,100217.45
2019-04-25T13:00:10.718Z,100203.73
2019-04-25T13:02:40.518Z,100198.61
2019-04-25T13:05:10.081Z,100202.60
2019-04-25T13:07:39.505Z,100200.59
2019-04-25T13:10:09.329Z,100199.61
2019-04-25T13:12:38.523Z,100199.45
2019-04-25T13:15:08.696Z,100193.59
2019-04-25T13:17:40.020Z,100189.09
2019-04-25T13:20:09.300Z,100196.30
2019-04-25T13:22:39.428Z,100189.30
2019-04-25T13:25:12.053Z,100185.12
2019-04-25T13:27:51.528Z,100176.05
2019-04-25T13:30:42.601Z,100190.75
2019-04-25T13:33:36.537Z,100187.19
2019-04-25T13:36:09.319Z,100180.29
2019-04-25T13:38:39.075Z,100185.56
2019-04-25T13:41:08.454Z,100171.91
2019-04-25T13:43:40.413Z,100173.91
2019-04-25T13:46:10.846Z,100168.25
2019-04-25T13:48:42.885Z,100168.39
2019-04-25T13:51:14.144Z,100166.63
2019-04-25T13:53:43.780Z,100165.42
2019-04-25T13:56:13.371Z,100159.91
2019-04-25T13:58:44.292Z,100164.94
2019-04-25T14:01:17.463Z,100156.66
2019-04-25T14:03:47.728Z,100156.28
2019-04-25T14:06:17.245Z,100154.26
2019-04-25T14:08:47.397Z,100153.45
2019-04-25T14:11:18.119Z,100156.25
2019-04-25T14:13:47.824Z,100156.63
2019-04-25T14:16:39.159Z,100154.93
2019-04-25T14:19:26.609Z,100148.81
2019-04-25T14:21:59.289Z,100155.59
2019-04-25T14:24:30.759Z,100141.19
2019-04-25T14:27:00.053Z,100144.97
2019-04-25T14:29:30.962Z,100138.20
2019-04-25T14:32:00.660Z,100142.81
2019-04-25T14:34:30.295Z,100136.75
2019-04-25T14:37:00.144Z,100131.06
2019-04-25T14:39:32.256Z,100127.88
2019-04-25T14:42:02.416Z,100126.17
2019-04-25T14:44:32.368Z,100125.31
2019-04-25T14:47:02.336Z,100125.11
2019-04-25T14:49:32.940Z,100125.39
2019-04-25T14:52:03.339Z,100120.59
2019-04-25T14:54:51.016Z,100116.31
2019-04-25T14:57:28.256Z,100108.77
2019-04-25T15:00:04.308Z,100108.27
2019-04-25T15:02:32.983Z,100112.89
2019-04-25T15:05:02.593Z,100109.92
2019-04-25T15:07:35.070Z,100110.10
2019-04-25T15:10:04.595Z,100103.91
2019-04-25T15:12:35.965Z,100101.93
2019-04-25T15:15:06.230Z,100104.13
2019-04-25T15:17:45.232Z,100106.52
2019-04-25T15:20:09.435Z,100108.31
2019-04-25T15:22:39.196Z,100102.77
2019-04-25T15:25:09.293Z,100108.90
2019-04-25T15:27:39.327Z,100104.59
2019-04-25T15:30:10.919Z,100113.28
2019-04-25T15:32:40.711Z,100104.85
2019-04-25T15:35:12.237Z,100105.80
2019-04-25T15:37:47.399Z,100101.19
2019-04-25T15:40:37.765Z,100098.32
2019-04-25T15:43:44.634Z,100071.31
2019-04-25T15:46:30.238Z,100071.31
2019-04-25T15:48:59.906Z,100092.98
2019-04-25T15:51:30.137Z,100069.25
2019-04-25T15:53:59.746Z,100086.38
2019-04-25T15:56:30.266Z,100090.89
2019-04-25T15:59:01.310Z,100082.62
2019-04-25T16:01:31.183Z,100084.77
2019-04-25T16:04:01.004Z,100084.03
2019-04-25T16:06:31.854Z,100087.84
2019-04-25T16:09:03.607Z,100087.28
2019-04-25T16:11:35.143Z,100083.38
2019-04-25T16:14:05.065Z,100087.52
2019-04-25T16:16:35.898Z,100084.58
2019-04-25T16:19:05.739Z,100087.89
2019-04-25T16:21:35.506Z,100085.51
2019-04-25T16:24:09.932Z,100088.97
2019-04-25T16:26:39.447Z,100083.05
2019-04-25T16:29:09.059Z,100082.30
2019-04-25T16:31:38.534Z,100089.18
2019-04-25T16:34:07.950Z,100089.28
2019-04-25T16:36:37.830Z,100081.55
2019-04-25T16:39:09.955Z,100088.69
2019-04-25T16:41:42.596Z,100082.95
2019-04-25T16:44:14.785Z,100087.26
2019-04-25T16:46:44.541Z,100088.77
2019-04-25T16:49:14.491Z,100090.89
2019-04-25T16:51:44.501Z,100090.50
2019-04-25T16:54:14.499Z,100090.66
2019-04-25T16:56:44.493Z,100092.66
2019-04-25T16:59:14.398Z,100096.95
2019-04-25T17:01:44.625Z,100091.41
2019-04-25T17:04:14.619Z,100094.72
2019-04-25T17:06:45.126Z,100094.64
2019-04-25T17:09:14.890Z,100099.59
2019-04-25T17:11:44.501Z,100095.67
2019-04-25T17:14:37.810Z,100094.85
2019-04-25T17:17:29.480Z,100096.82
2019-04-25T17:20:14.965Z,100099.73
2019-04-25T17:22:43.544Z,100090.97
2019-04-25T17:25:13.246Z,100099.05
2019-04-25T17:27:43.280Z,100100.37
2019-04-25T17:30:15.826Z,100101.65
2019-04-25T17:33:22.281Z,100096.25
2019-04-25T17:36:14.708Z,100101.91
2019-04-25T17:39:03.626Z,100102.19
2019-04-25T17:41:36.244Z,100103.53
2019-04-25T17:44:06.375Z,100109.16
2019-04-25T17:46:36.220Z,100107.28
2019-04-25T17:49:06.561Z,100106.42
2019-04-25T17:51:36.631Z,100109.38
2019-04-25T17:54:08.426Z,100107.42
2019-04-25T17:56:41.543Z,100102.70
2019-04-25T17:59:11.213Z,100111.58
2019-04-25T18:01:41.022Z,100109.44
2019-04-25T18:04:11.273Z,100108.81
2019-04-25T18:06:44.402Z,100108.96
2019-04-25T18:09:14.495Z,100111.64
2019-04-25T18:12:03.955Z,100108.11
2019-04-25T18:14:34.071Z,100104.41
2019-04-25T18:17:05.990Z,100108.05
2019-04-25T18:19:41.440Z,100110.38
2019-04-25T18:22:27.258Z,100088.85
2019-04-25T18:25:14.614Z,100088.85
2019-04-25T18:27:56.798Z,100109.50
2019-04-25T18:30:27.859Z,100109.06
2019-04-25T18:33:10.563Z,100105.19
2019-04-25T18:35:41.672Z,100099.98
2019-04-25T18:38:26.758Z,100105.61
2019-04-25T18:41:08.458Z,100104.07
2019-04-25T18:43:41.099Z,100106.88
2019-04-25T18:46:19.490Z,100096.74
2019-04-25T18:48:48.739Z,100098.25
2019-04-25T18:51:18.140Z,100100.21
2019-04-25T18:54:09.511Z,100098.67
2019-04-25T18:56:45.211Z,100099.46
2019-04-25T18:59:42.545Z,100097.89
2019-04-25T19:02:46.356Z,100103.88
2019-04-25T19:05:41.460Z,100098.20
2019-04-25T19:08:11.553Z,100098.27
2019-04-25T19:10:41.182Z,100100.88
2019-04-25T19:13:12.787Z,100104.61
2019-04-25T19:15:43.106Z,100103.68
2019-04-25T19:18:13.051Z,100110.88
2019-04-25T19:20:43.907Z,100104.05
2019-04-25T19:23:13.992Z,100104.94
2019-04-25T19:25:45.873Z,100110.99
2019-04-25T19:28:18.806Z,100113.45
2019-04-25T19:30:48.430Z,100109.85
2019-04-25T19:33:19.923Z,100114.39
2019-04-25T19:35:49.775Z,100119.18
2019-04-25T19:38:19.562Z,100120.65
2019-04-25T19:41:00.049Z,100114.45
2019-04-25T19:43:47.468Z,100122.64
2019-04-25T19:46:17.507Z,100127.22
2019-04-25T19:48:47.288Z,100121.32
2019-04-25T19:51:17.128Z,100122.41
2019-04-25T19:53:51.250Z,100120.52
2019-04-25T19:56:21.363Z,100120.65
2019-04-25T19:58:51.095Z,100123.23
2019-04-25T20:01:20.968Z,100121.60
2019-04-25T20:03:58.657Z,100122.98
2019-04-25T20:06:47.512Z,100123.28
2019-04-25T20:09:51.194Z,100126.21
2019-04-25T20:12:21.666Z,100122.25
2019-04-25T20:14:51.389Z,100127.16
2019-04-25T20:17:21.321Z,100130.84
2019-04-25T20:19:51.873Z,100132.56
2019-04-25T20:22:21.782Z,100132.87
2019-04-25T20:24:52.480Z,100127.92
2019-04-25T20:27:22.336Z,100129.55
2019-04-25T20:29:53.317Z,100129.58
2019-04-25T20:32:23.189Z,100130.85
2019-04-25T20:34:53.157Z,100128.47
2019-04-25T20:37:22.942Z,100132.63
2019-04-25T20:39:53.978Z,100127.58
2019-04-25T20:42:23.780Z,100126.97
2019-04-25T20:44:56.000Z,100126.78
2019-04-25T20:47:25.347Z,100134.32
2019-04-25T20:49:55.366Z,100131.20
2019-04-25T20:52:25.183Z,100136.03
2019-04-25T20:54:55.048Z,100134.92
2019-04-25T20:57:25.508Z,100139.40
2019-04-25T20:59:56.039Z,100138.52
2019-04-25T21:02:26.376Z,100140.55
2019-04-25T21:04:56.868Z,100146.61
2019-04-25T21:07:28.464Z,100149.50
2019-04-25T21:09:58.575Z,100149.37
2019-04-25T21:12:28.388Z,100150.80
2019-04-25T21:15:15.632Z,100150.07
2019-04-25T21:18:03.104Z,100151.69
2019-04-25T21:20:33.418Z,100150.86
2019-04-25T21:23:03.137Z,100147.77
2019-04-25T21:25:32.962Z,100146.73
2019-04-25T21:28:02.635Z,100153.54
2019-04-25T21:30:32.188Z,100152.70
2019-04-25T21:33:02.232Z,100156.20
2019-04-25T21:35:32.691Z,100156.34
2019-04-25T21:38:02.553Z,100153.72
2019-04-25T21:40:39.609Z,100156.39
2019-04-25T21:43:13.225Z,100159.17
2019-04-25T21:45:43.482Z,100152.77
2019-04-25T21:48:13.499Z,100154.72
2019-04-25T21:50:44.211Z,100161.38
2019-04-25T21:53:14.017Z,100159.30
2019-04-25T21:55:44.013Z,100171.03
2019-04-25T21:58:14.330Z,100170.41
2019-04-25T22:01:02.498Z,100179.36
2019-04-25T22:03:33.805Z,100193.88
2019-04-25T22:06:05.119Z,100209.00
2019-04-25T22:08:34.918Z,100218.79
2019-04-25T22:11:05.533Z,100227.77
2019-04-25T22:13:36.818Z,100215.38
2019-04-25T22:16:07.142Z,100189.61
2019-04-25T22:18:37.937Z,100170.61
2019-04-25T22:21:11.825Z,100169.21
2019-04-25T22:23:42.262Z,100161.09
2019-04-25T22:26:14.112Z,100167.73
2019-04-25T22:28:44.007Z,100168.48
2019-04-25T22:31:18.559Z,100170.78
2019-04-25T22:34:08.240Z,100154.75
2019-04-25T22:36:37.967Z,100154.75
2019-04-25T22:39:12.546Z,100173.13
2019-04-25T22:41:46.983Z,100175.56
2019-04-25T22:44:17.635Z,100179.55
2019-04-25T22:46:47.258Z,100169.77
2019-04-25T22:49:18.040Z,100177.76
2019-04-25T22:51:47.769Z,100179.13
2019-04-25T22:54:17.554Z,100180.19
2019-04-25T22:56:47.347Z,100178.52
2019-04-25T22:59:21.259Z,100180.58
2019-04-25T23:02:07.558Z,100180.81
2019-04-25T23:04:46.694Z,100182.73
2019-04-25T23:07:17.809Z,100175.80
2019-04-25T23:09:49.899Z,100168.67
2019-04-25T23:12:19.906Z,100168.30
2019-04-25T23:14:49.361Z,100155.85
2019-04-25T23:17:19.287Z,100161.03
2019-04-25T23:19:49.267Z,100160.17
2019-04-25T23:22:19.573Z,100164.40
2019-04-25T23:25:01.118Z,100165.69
2019-04-25T23:27:46.020Z,100168.55
2019-04-25T23:30:18.374Z,100167.64
2019-04-25T23:32:50.636Z,100173.14
2019-04-25T23:35:27.962Z,100177.31
2019-04-25T23:37:52.109Z,100178.47
2019-04-25T23:40:22.017Z,100184.45
2019-04-25T23:42:51.543Z,100175.34
2019-04-25T23:45:21.275Z,100182.44
2019-04-25T23:47:51.060Z,100177.20
2019-04-25T23:50:20.959Z,100183.89
2019-04-25T23:52:50.403Z,100179.16
2019-04-25T23:55:20.425Z,100180.08
2019-04-25T23:57:50.225Z,100179.20
